createdAt,value
2018-02-13T00:00:21.938Z,87.5
2018-02-13T00:00:48.357Z,87.59
2018-02-13T00:01:14.725Z,87.59
2018-02-13T00:01:41.000Z,87.5
2018-02-13T00:02:07.554Z,87.4
2018-02-13T00:02:33.590Z,87.5
2018-02-13T00:02:59.739Z,87.78
2018-02-13T00:03:25.838Z,87.59
2018-02-13T00:03:51.982Z,87.31
2018-02-13T00:04:18.132Z,87.21
2018-02-13T00:04:44.336Z,87.21
2018-02-13T00:05:10.502Z,87.4
2018-02-13T00:05:36.859Z,87.12
2018-02-13T00:06:03.432Z,87.02
2018-02-13T00:06:29.540Z,87.21
2018-02-13T00:06:55.721Z,87.31
2018-02-13T00:07:21.852Z,86.93
2018-02-13T00:07:47.965Z,86.65
2018-02-13T00:08:14.071Z,86.83
2018-02-13T00:08:40.211Z,87.02
2018-02-13T00:09:06.341Z,86.83
2018-02-13T00:09:32.538Z,87.02
2018-02-13T00:09:58.694Z,87.12
2018-02-13T00:10:24.789Z,86.55
2018-02-13T00:10:50.888Z,86.55
2018-02-13T00:11:16.987Z,87.02
2018-02-13T00:11:43.095Z,87.12
2018-02-13T00:12:09.185Z,87.4
2018-02-13T00:12:35.299Z,87.31
2018-02-13T00:13:01.412Z,87.21
2018-02-13T00:13:27.506Z,86.74
2018-02-13T00:13:53.611Z,86.74
2018-02-13T00:14:19.706Z,87.21
2018-02-13T00:14:45.805Z,86.83
2018-02-13T00:15:11.907Z,87.31
2018-02-13T00:15:38.022Z,87.02
2018-02-13T00:16:04.125Z,86.55
2018-02-13T00:16:30.220Z,86.65
2018-02-13T00:16:56.316Z,86.93
2018-02-13T00:17:22.431Z,86.65
2018-02-13T00:17:48.531Z,86.74
2018-02-13T00:18:14.633Z,86.55
2018-02-13T00:18:40.734Z,87.12
2018-02-13T00:19:06.837Z,86.93
2018-02-13T00:19:32.935Z,86.36
2018-02-13T00:19:59.027Z,87.12
2018-02-13T00:20:25.131Z,86.93
2018-02-13T00:20:51.231Z,86.74
2018-02-13T00:21:17.328Z,86.93
2018-02-13T00:21:43.427Z,86.93
2018-02-13T00:22:09.528Z,86.65
2018-02-13T00:22:35.627Z,87.12
2018-02-13T00:23:01.722Z,87.02
2018-02-13T00:23:27.826Z,86.55
2018-02-13T00:23:53.924Z,86.55
2018-02-13T00:24:20.038Z,86.83
2018-02-13T00:24:46.156Z,87.21
2018-02-13T00:25:12.255Z,87.12
2018-02-13T00:25:38.359Z,87.12
2018-02-13T00:26:04.453Z,86.83
2018-02-13T00:26:30.558Z,86.74
2018-02-13T00:26:56.658Z,86.55
2018-02-13T00:27:22.752Z,86.74
2018-02-13T00:27:48.853Z,86.93
2018-02-13T00:28:14.950Z,86.6
2018-02-13T00:28:41.053Z,86.65
2018-02-13T00:29:07.151Z,86.83
2018-02-13T00:29:33.247Z,86.98
2018-02-13T00:29:59.353Z,86.83
2018-02-13T00:30:25.468Z,87.08
2018-02-13T00:30:51.561Z,87.12
2018-02-13T00:31:17.659Z,86.83
2018-02-13T00:31:43.763Z,86.93
2018-02-13T00:32:09.867Z,87.12
2018-02-13T00:32:35.964Z,86.55
2018-02-13T00:33:02.081Z,86.55
2018-02-13T00:33:28.183Z,86.55
2018-02-13T00:33:54.278Z,86.74
2018-02-13T00:34:20.398Z,86.65
2018-02-13T00:34:46.516Z,86.74
2018-02-13T00:35:12.613Z,86.55
2018-02-13T00:35:38.714Z,86.74
2018-02-13T00:36:04.803Z,86.55
2018-02-13T00:36:30.902Z,86.65
2018-02-13T00:36:57.004Z,86.83
2018-02-13T00:37:23.098Z,86.83
2018-02-13T00:37:49.202Z,86.74
2018-02-13T00:38:15.323Z,86.7
2018-02-13T00:38:41.417Z,87.02
2018-02-13T00:39:07.527Z,86.55
2018-02-13T00:39:33.625Z,86.55
2018-02-13T00:39:59.762Z,86.55
2018-02-13T00:40:25.827Z,86.93
2018-02-13T00:40:51.927Z,86.74
2018-02-13T00:41:18.022Z,86.83
2018-02-13T00:41:44.130Z,86.79
2018-02-13T00:42:10.223Z,86.83
2018-02-13T00:42:36.327Z,86.93
2018-02-13T00:43:02.425Z,86.83
2018-02-13T00:43:28.520Z,86.79
2018-02-13T00:43:54.624Z,86.7
2018-02-13T00:44:20.737Z,86.51
2018-02-13T00:44:46.839Z,86.7
2018-02-13T00:45:12.956Z,86.51
2018-02-13T00:45:39.055Z,86.51
2018-02-13T00:46:05.152Z,87.08
2018-02-13T00:46:31.248Z,87.02
2018-02-13T00:46:57.350Z,86.74
2018-02-13T00:47:23.445Z,86.74
2018-02-13T00:47:49.547Z,86.6
2018-02-13T00:48:15.640Z,86.7
2018-02-13T00:48:41.744Z,86.51
2018-02-13T00:49:07.838Z,86.79
2018-02-13T00:49:33.934Z,86.98
2018-02-13T00:50:00.039Z,86.7
2018-02-13T00:50:26.156Z,86.7
2018-02-13T00:50:52.253Z,86.89
2018-02-13T00:51:18.348Z,86.98
2018-02-13T00:51:44.447Z,86.98
2018-02-13T00:52:10.546Z,86.98
2018-02-13T00:52:36.651Z,86.7
2018-02-13T00:53:02.754Z,86.51
2018-02-13T00:53:28.849Z,86.51
2018-02-13T00:53:54.947Z,86.6
2018-02-13T00:54:21.068Z,86.6
2018-02-13T00:54:47.164Z,86.6
2018-02-13T00:55:13.268Z,86.79
2018-02-13T00:55:39.367Z,86.79
2018-02-13T00:56:05.469Z,86.7
2018-02-13T00:56:31.572Z,86.51
2018-02-13T00:56:57.665Z,86.7
2018-02-13T00:57:23.776Z,86.79
2018-02-13T00:57:49.879Z,86.51
2018-02-13T00:58:15.981Z,86.79
2018-02-13T00:58:42.092Z,87.08
2018-02-13T00:59:08.195Z,86.51
2018-02-13T00:59:34.295Z,86.7
2018-02-13T01:00:00.391Z,86.98
2018-02-13T01:00:26.493Z,86.6
2018-02-13T01:00:52.599Z,86.7
2018-02-13T01:01:18.709Z,86.51
2018-02-13T01:01:44.812Z,86.51
2018-02-13T01:02:10.907Z,86.7
2018-02-13T01:02:37.009Z,86.89
2018-02-13T01:03:03.116Z,86.98
2018-02-13T01:03:29.214Z,86.89
2018-02-13T01:03:55.314Z,87.08
2018-02-13T01:04:21.411Z,86.79
2018-02-13T01:04:47.514Z,86.6
2018-02-13T01:05:13.613Z,86.51
2018-02-13T01:05:39.706Z,86.79
2018-02-13T01:06:05.827Z,86.6
2018-02-13T01:06:31.927Z,86.79
2018-02-13T01:06:58.045Z,86.7
2018-02-13T01:07:24.145Z,86.6
2018-02-13T01:07:50.245Z,86.6
2018-02-13T01:08:16.345Z,86.7
2018-02-13T01:08:42.442Z,86.6
2018-02-13T01:09:08.539Z,86.6
2018-02-13T01:09:34.656Z,86.7
2018-02-13T01:10:00.752Z,86.89
2018-02-13T01:10:26.855Z,86.7
2018-02-13T01:10:52.950Z,86.7
2018-02-13T01:11:19.043Z,87.08
2018-02-13T01:11:45.144Z,86.98
2018-02-13T01:12:11.261Z,86.89
2018-02-13T01:12:37.366Z,86.7
2018-02-13T01:13:03.461Z,86.7
2018-02-13T01:13:29.568Z,87.08
2018-02-13T01:13:55.663Z,87.08
2018-02-13T01:14:21.764Z,86.89
2018-02-13T01:14:47.878Z,86.98
2018-02-13T01:15:13.976Z,86.98
2018-02-13T01:15:40.081Z,86.79
2018-02-13T01:16:06.191Z,86.32
2018-02-13T01:16:32.289Z,86.13
2018-02-13T01:16:58.391Z,86.22
2018-02-13T01:17:24.489Z,86.41
2018-02-13T01:17:50.590Z,86.32
2018-02-13T01:18:16.689Z,86.32
2018-02-13T01:18:42.796Z,86.98
2018-02-13T01:19:08.888Z,86.89
2018-02-13T01:19:34.990Z,87.08
2018-02-13T01:20:01.091Z,86.89
2018-02-13T01:20:27.187Z,86.22
2018-02-13T01:20:53.292Z,87.08
2018-02-13T01:21:19.444Z,86.41
2018-02-13T01:21:45.486Z,86.32
2018-02-13T01:22:11.604Z,86.04
2018-02-13T01:22:37.729Z,86.22
2018-02-13T01:23:03.821Z,86.13
2018-02-13T01:23:29.925Z,86.41
2018-02-13T01:23:56.025Z,86.32
2018-02-13T01:24:22.131Z,86.89
2018-02-13T01:24:48.223Z,86.89
2018-02-13T01:25:14.321Z,86.7
2018-02-13T01:25:40.420Z,86.7
2018-02-13T01:26:06.516Z,86.79
2018-02-13T01:26:32.625Z,86.7
2018-02-13T01:26:58.720Z,86.79
2018-02-13T01:27:24.841Z,86.89
2018-02-13T01:27:50.936Z,86.7
2018-02-13T01:28:17.036Z,86.51
2018-02-13T01:28:43.136Z,86.6
2018-02-13T01:29:09.246Z,86.7
2018-02-13T01:29:35.336Z,86.6
2018-02-13T01:30:01.431Z,86.7
2018-02-13T01:30:27.548Z,86.7
2018-02-13T01:30:53.645Z,86.79
2018-02-13T01:31:19.737Z,86.89
2018-02-13T01:31:45.841Z,86.6
2018-02-13T01:32:11.939Z,86.13
2018-02-13T01:32:38.045Z,85.94
2018-02-13T01:33:04.149Z,86.22
2018-02-13T01:33:30.241Z,86.13
2018-02-13T01:33:56.338Z,86.22
2018-02-13T01:34:22.443Z,86.32
2018-02-13T01:34:48.540Z,86.51
2018-02-13T01:35:14.636Z,86.13
2018-02-13T01:35:40.733Z,86.13
2018-02-13T01:36:06.835Z,85.66
2018-02-13T01:36:32.936Z,86.41
2018-02-13T01:36:59.026Z,86.04
2018-02-13T01:37:25.130Z,86.51
2018-02-13T01:37:51.234Z,86.32
2018-02-13T01:38:17.330Z,86.89
2018-02-13T01:38:43.428Z,86.89
2018-02-13T01:39:09.524Z,86.7
2018-02-13T01:39:35.627Z,86.79
2018-02-13T01:40:01.730Z,86.41
2018-02-13T01:40:27.823Z,86.13
2018-02-13T01:40:53.926Z,86.22
2018-02-13T01:41:20.023Z,86.32
2018-02-13T01:41:46.124Z,86.41
2018-02-13T01:42:12.237Z,86.51
2018-02-13T01:42:38.335Z,86.89
2018-02-13T01:43:04.440Z,86.79
2018-02-13T01:43:30.539Z,86.89
2018-02-13T01:43:56.632Z,86.32
2018-02-13T01:44:22.734Z,86.13
2018-02-13T01:44:48.904Z,85.85
2018-02-13T01:45:14.941Z,86.22
2018-02-13T01:45:41.041Z,86.22
2018-02-13T01:46:07.145Z,86.79
2018-02-13T01:46:33.260Z,86.32
2018-02-13T01:46:59.339Z,86.13
2018-02-13T01:47:25.442Z,86.13
2018-02-13T01:47:51.552Z,86.32
2018-02-13T01:48:17.654Z,86.32
2018-02-13T01:48:43.753Z,86.32
2018-02-13T01:49:09.845Z,86.32
2018-02-13T01:49:35.945Z,86.22
2018-02-13T01:50:02.045Z,85.75
2018-02-13T01:50:28.140Z,85.94
2018-02-13T01:50:54.250Z,86.13
2018-02-13T01:51:20.351Z,86.22
2018-02-13T01:51:46.442Z,86.13
2018-02-13T01:52:12.559Z,86.32
2018-02-13T01:52:38.658Z,86.41
2018-02-13T01:53:04.758Z,85.94
2018-02-13T01:53:30.859Z,85.94
2018-02-13T01:53:56.953Z,86.22
2018-02-13T01:54:23.054Z,86.13
2018-02-13T01:54:49.155Z,86.22
2018-02-13T01:55:15.249Z,85.75
2018-02-13T01:55:41.353Z,86.13
2018-02-13T01:56:07.469Z,86.13
2018-02-13T01:56:33.570Z,86.41
2018-02-13T01:56:59.670Z,86.04
2018-02-13T01:57:25.769Z,86.79
2018-02-13T01:57:51.861Z,86.89
2018-02-13T01:58:17.965Z,87.08
2018-02-13T01:58:44.067Z,87.08
2018-02-13T01:59:10.177Z,86.79
2018-02-13T01:59:36.289Z,86.51
2018-02-13T02:00:02.387Z,86.98
2018-02-13T02:00:28.488Z,86.7
2018-02-13T02:00:54.584Z,86.89
2018-02-13T02:01:20.686Z,86.79
2018-02-13T02:01:46.797Z,86.7
2018-02-13T02:02:12.899Z,86.51
2018-02-13T02:02:39.001Z,86.51
2018-02-13T02:03:05.095Z,86.51
2018-02-13T02:03:31.196Z,86.79
2018-02-13T02:03:57.293Z,86.7
2018-02-13T02:04:23.406Z,86.7
2018-02-13T02:04:49.501Z,87.08
2018-02-13T02:05:15.599Z,86.79
2018-02-13T02:05:41.704Z,86.7
2018-02-13T02:06:07.797Z,87.08
2018-02-13T02:06:33.915Z,87.08
2018-02-13T02:07:00.011Z,86.98
2018-02-13T02:07:26.114Z,86.89
2018-02-13T02:07:52.214Z,87.08
2018-02-13T02:08:18.309Z,86.6
2018-02-13T02:08:44.409Z,86.7
2018-02-13T02:09:10.507Z,86.79
2018-02-13T02:09:36.608Z,86.51
2018-02-13T02:10:02.703Z,86.7
2018-02-13T02:10:28.801Z,87.08
2018-02-13T02:10:54.907Z,87.17
2018-02-13T02:11:21.000Z,86.79
2018-02-13T02:11:47.103Z,87.65
2018-02-13T02:12:13.209Z,87.17
2018-02-13T02:12:39.305Z,87.27
2018-02-13T02:13:05.399Z,86.98
2018-02-13T02:13:31.515Z,87.08
2018-02-13T02:13:57.614Z,86.98
2018-02-13T02:14:23.714Z,86.7
2018-02-13T02:14:49.814Z,86.98
2018-02-13T02:15:15.909Z,86.98
2018-02-13T02:15:42.010Z,86.7
2018-02-13T02:16:08.112Z,86.51
2018-02-13T02:16:34.235Z,86.79
2018-02-13T02:17:00.326Z,86.7
2018-02-13T02:17:26.421Z,86.7
2018-02-13T02:17:52.523Z,86.6
2018-02-13T02:18:18.637Z,86.98
2018-02-13T02:18:44.733Z,86.32
2018-02-13T02:19:10.833Z,85.94
2018-02-13T02:19:36.938Z,86.13
2018-02-13T02:20:03.031Z,86.41
2018-02-13T02:20:29.133Z,86.32
2018-02-13T02:20:55.233Z,86.32
2018-02-13T02:21:21.332Z,85.75
2018-02-13T02:21:47.435Z,86.13
2018-02-13T02:22:13.530Z,85.85
2018-02-13T02:22:39.635Z,86.32
2018-02-13T02:23:05.734Z,86.51
2018-02-13T02:23:31.833Z,86.7
2018-02-13T02:23:57.929Z,86.6
2018-02-13T02:24:24.044Z,86.7
2018-02-13T02:24:50.148Z,86.6
2018-02-13T02:25:16.250Z,86.51
2018-02-13T02:25:42.348Z,86.98
2018-02-13T02:26:08.443Z,87.17
2018-02-13T02:26:34.546Z,86.89
2018-02-13T02:27:00.641Z,86.79
2018-02-13T02:27:26.742Z,86.79
2018-02-13T02:27:52.840Z,86.7
2018-02-13T02:28:18.940Z,86.7
2018-02-13T02:28:45.047Z,86.98
2018-02-13T02:29:11.156Z,86.51
2018-02-13T02:29:37.252Z,86.32
2018-02-13T02:30:03.360Z,86.32
2018-02-13T02:30:29.476Z,86.13
2018-02-13T02:30:55.588Z,86.04
2018-02-13T02:31:21.684Z,86.22
2018-02-13T02:31:47.789Z,85.75
2018-02-13T02:32:13.888Z,86.13
2018-02-13T02:32:39.983Z,86.32
2018-02-13T02:33:06.088Z,86.13
2018-02-13T02:33:32.185Z,85.66
2018-02-13T02:33:58.288Z,86.32
2018-02-13T02:34:24.407Z,86.7
2018-02-13T02:34:50.522Z,86.13
2018-02-13T02:35:16.621Z,86.41
2018-02-13T02:35:42.712Z,86.32
2018-02-13T02:36:08.830Z,86.22
2018-02-13T02:36:34.927Z,86.51
2018-02-13T02:37:01.029Z,85.94
2018-02-13T02:37:27.124Z,85.75
2018-02-13T02:37:53.222Z,85.75
2018-02-13T02:38:19.320Z,86.22
2018-02-13T02:38:45.414Z,86.04
2018-02-13T02:39:11.517Z,85.85
2018-02-13T02:39:37.612Z,85.66
2018-02-13T02:40:03.714Z,85.85
2018-02-13T02:40:29.813Z,85.94
2018-02-13T02:40:55.914Z,85.94
2018-02-13T02:41:22.016Z,85.94
2018-02-13T02:41:48.110Z,85.85
2018-02-13T02:42:14.208Z,85.85
2018-02-13T02:42:40.307Z,85.75
2018-02-13T02:43:06.413Z,85.66
2018-02-13T02:43:32.511Z,85.94
2018-02-13T02:43:58.613Z,86.41
2018-02-13T02:44:24.716Z,85.85
2018-02-13T02:44:50.810Z,85.57
2018-02-13T02:45:16.900Z,85.38
2018-02-13T02:45:43.004Z,85.85
2018-02-13T02:46:09.103Z,85.09
2018-02-13T02:46:35.199Z,85.66
2018-02-13T02:47:01.303Z,85.94
2018-02-13T02:47:27.400Z,86.04
2018-02-13T02:47:53.496Z,85.94
2018-02-13T02:48:19.598Z,85.75
2018-02-13T02:48:45.703Z,85.94
2018-02-13T02:49:11.799Z,85.75
2018-02-13T02:49:37.905Z,85.66
2018-02-13T02:50:04.013Z,85.94
2018-02-13T02:50:30.129Z,85.85
2018-02-13T02:50:56.232Z,85.75
2018-02-13T02:51:22.327Z,86.41
2018-02-13T02:51:48.431Z,86.32
2018-02-13T02:52:14.530Z,86.51
2018-02-13T02:52:40.626Z,86.13
2018-02-13T02:53:06.762Z,86.13
2018-02-13T02:53:32.857Z,86.6
2018-02-13T02:53:58.956Z,86.41
2018-02-13T02:54:25.061Z,86.22
2018-02-13T02:54:51.159Z,86.22
2018-02-13T02:55:17.260Z,86.13
2018-02-13T02:55:43.354Z,86.32
2018-02-13T02:56:09.452Z,87.08
2018-02-13T02:56:35.552Z,86.32
2018-02-13T02:57:01.656Z,86.32
2018-02-13T02:57:27.753Z,86.89
2018-02-13T02:57:53.850Z,86.51
2018-02-13T02:58:19.952Z,86.89
2018-02-13T02:58:46.056Z,86.51
2018-02-13T02:59:12.160Z,86.51
2018-02-13T02:59:38.247Z,85.85
2018-02-13T03:00:04.350Z,86.32
2018-02-13T03:00:30.454Z,86.32
2018-02-13T03:00:56.555Z,86.51
2018-02-13T03:01:22.649Z,86.22
2018-02-13T03:01:48.748Z,86.32
2018-02-13T03:02:14.869Z,86.32
2018-02-13T03:02:40.978Z,85.94
2018-02-13T03:03:07.114Z,86.04
2018-02-13T03:03:33.220Z,86.41
2018-02-13T03:03:59.318Z,86.13
2018-02-13T03:04:25.413Z,86.04
2018-02-13T03:04:51.519Z,86.22
2018-02-13T03:05:17.616Z,85.85
2018-02-13T03:05:43.719Z,86.13
2018-02-13T03:06:09.835Z,86.13
2018-02-13T03:06:35.929Z,86.32
2018-02-13T03:07:02.030Z,86.22
2018-02-13T03:07:28.126Z,86.22
2018-02-13T03:07:54.229Z,86.13
2018-02-13T03:08:20.329Z,86.13
2018-02-13T03:08:46.427Z,86.51
2018-02-13T03:09:12.522Z,86.32
2018-02-13T03:09:38.619Z,86.51
2018-02-13T03:10:04.776Z,86.22
2018-02-13T03:10:30.869Z,86.41
2018-02-13T03:10:56.970Z,86.41
2018-02-13T03:11:23.067Z,85.94
2018-02-13T03:11:49.170Z,86.13
2018-02-13T03:12:15.262Z,85.66
2018-02-13T03:12:41.363Z,86.13
2018-02-13T03:13:07.482Z,85.66
2018-02-13T03:13:33.576Z,85.94
2018-02-13T03:13:59.696Z,85.85
2018-02-13T03:14:25.794Z,85.85
2018-02-13T03:14:51.910Z,85.47
2018-02-13T03:15:18.004Z,85.66
2018-02-13T03:15:44.104Z,85.28
2018-02-13T03:16:10.199Z,85.19
2018-02-13T03:16:36.297Z,85
2018-02-13T03:17:02.400Z,85.38
2018-02-13T03:17:28.501Z,85.38
2018-02-13T03:17:54.599Z,85.66
2018-02-13T03:18:20.704Z,85.09
2018-02-13T03:18:46.798Z,85.28
2018-02-13T03:19:12.893Z,85.19
2018-02-13T03:19:38.996Z,85.57
2018-02-13T03:20:05.096Z,85
2018-02-13T03:20:31.192Z,85.38
2018-02-13T03:20:57.287Z,85.09
2018-02-13T03:21:23.393Z,85.19
2018-02-13T03:21:49.488Z,84.52
2018-02-13T03:22:15.587Z,84.52
2018-02-13T03:22:41.683Z,84.61
2018-02-13T03:23:07.780Z,84.42
2018-02-13T03:23:33.882Z,84.52
2018-02-13T03:23:59.976Z,84.9
2018-02-13T03:24:26.079Z,84.42
2018-02-13T03:24:52.179Z,84.9
2018-02-13T03:25:18.281Z,84.9
2018-02-13T03:25:44.376Z,84.23
2018-02-13T03:26:10.480Z,84.05
2018-02-13T03:26:36.595Z,84.05
2018-02-13T03:27:02.696Z,84.42
2018-02-13T03:27:28.849Z,84.81
2018-02-13T03:27:54.889Z,84.81
2018-02-13T03:28:20.992Z,84.9
2018-02-13T03:28:47.092Z,83.86
2018-02-13T03:29:13.189Z,84.23
2018-02-13T03:29:39.289Z,84.14
2018-02-13T03:30:05.387Z,84.38
2018-02-13T03:30:31.516Z,83.71
2018-02-13T03:30:57.620Z,84.28
2018-02-13T03:31:23.720Z,83.76
2018-02-13T03:31:49.821Z,83.95
2018-02-13T03:32:15.916Z,83.9
2018-02-13T03:32:42.031Z,83.86
2018-02-13T03:33:08.136Z,83.86
2018-02-13T03:33:34.229Z,84.05
2018-02-13T03:34:00.326Z,83.95
2018-02-13T03:34:26.432Z,84.33
2018-02-13T03:34:52.532Z,83.95
2018-02-13T03:35:18.643Z,84.33
2018-02-13T03:35:44.742Z,84.42
2018-02-13T03:36:10.844Z,84.33
2018-02-13T03:36:36.938Z,84.14
2018-02-13T03:37:03.043Z,84.42
2018-02-13T03:37:29.161Z,84.23
2018-02-13T03:37:55.256Z,84.23
2018-02-13T03:38:21.360Z,83.95
2018-02-13T03:38:47.457Z,83.76
2018-02-13T03:39:13.554Z,84.33
2018-02-13T03:39:39.656Z,83.76
2018-02-13T03:40:05.755Z,83.95
2018-02-13T03:40:31.853Z,83.95
2018-02-13T03:40:57.951Z,83.86
2018-02-13T03:41:24.048Z,83.95
2018-02-13T03:41:50.159Z,84.14
2018-02-13T03:42:16.264Z,84.28
2018-02-13T03:42:42.365Z,83.71
2018-02-13T03:43:08.457Z,84.28
2018-02-13T03:43:34.558Z,83.9
2018-02-13T03:44:00.659Z,84.19
2018-02-13T03:44:26.762Z,83.95
2018-02-13T03:44:52.892Z,83.76
2018-02-13T03:45:18.954Z,84.14
2018-02-13T03:45:45.054Z,83.86
2018-02-13T03:46:11.184Z,84
2018-02-13T03:46:37.281Z,83.95
2018-02-13T03:47:03.368Z,84.05
2018-02-13T03:47:29.477Z,83.9
2018-02-13T03:47:55.571Z,83.9
2018-02-13T03:48:21.677Z,84.28
2018-02-13T03:48:47.775Z,83.95
2018-02-13T03:49:13.871Z,83.86
2018-02-13T03:49:39.970Z,83.86
2018-02-13T03:50:06.072Z,84.05
2018-02-13T03:50:32.170Z,83.86
2018-02-13T03:50:58.271Z,83.67
2018-02-13T03:51:24.372Z,83.76
2018-02-13T03:51:50.509Z,84.05
2018-02-13T03:52:16.573Z,84.09
2018-02-13T03:52:42.676Z,84.09
2018-02-13T03:53:08.769Z,84.19
2018-02-13T03:53:34.872Z,84.09
2018-02-13T03:54:00.967Z,83.81
2018-02-13T03:54:27.062Z,83.43
2018-02-13T03:54:53.166Z,83.33
2018-02-13T03:55:19.259Z,83.24
2018-02-13T03:55:45.358Z,83.52
2018-02-13T03:56:11.464Z,83.33
2018-02-13T03:56:37.558Z,83.24
2018-02-13T03:57:03.681Z,82.95
2018-02-13T03:57:29.773Z,83.24
2018-02-13T03:57:55.875Z,83.05
2018-02-13T03:58:21.971Z,83.05
2018-02-13T03:58:48.073Z,83.62
2018-02-13T03:59:14.166Z,83.52
2018-02-13T03:59:40.283Z,83.52
2018-02-13T04:00:06.406Z,82.95
2018-02-13T04:00:32.506Z,83.62
2018-02-13T04:00:58.609Z,83.14
2018-02-13T04:01:24.706Z,83.14
2018-02-13T04:01:50.800Z,83.62
2018-02-13T04:02:16.901Z,83.52
2018-02-13T04:02:42.999Z,83.33
2018-02-13T04:03:09.098Z,83.05
2018-02-13T04:03:35.218Z,83.71
2018-02-13T04:04:01.315Z,83.62
2018-02-13T04:04:27.412Z,84
2018-02-13T04:04:53.513Z,84.19
2018-02-13T04:05:19.619Z,84.19
2018-02-13T04:05:45.714Z,83.71
2018-02-13T04:06:11.812Z,83.43
2018-02-13T04:06:37.916Z,83.14
2018-02-13T04:07:04.012Z,83.24
2018-02-13T04:07:30.112Z,83.24
2018-02-13T04:07:56.214Z,83.24
2018-02-13T04:08:22.312Z,83.24
2018-02-13T04:08:48.413Z,83.24
2018-02-13T04:09:14.526Z,83.05
2018-02-13T04:09:40.629Z,83.52
2018-02-13T04:10:06.725Z,83.14
2018-02-13T04:10:32.827Z,83.71
2018-02-13T04:10:58.927Z,83.71
2018-02-13T04:11:25.038Z,83.62
2018-02-13T04:11:51.140Z,83.05
2018-02-13T04:12:17.241Z,83.14
2018-02-13T04:12:43.336Z,83.14
2018-02-13T04:13:09.434Z,82.95
2018-02-13T04:13:35.538Z,83.24
2018-02-13T04:14:01.644Z,82.86
2018-02-13T04:14:27.739Z,83.24
2018-02-13T04:14:53.841Z,83.43
2018-02-13T04:15:19.939Z,82.86
2018-02-13T04:15:46.037Z,82.95
2018-02-13T04:16:12.139Z,82.67
2018-02-13T04:16:38.243Z,83.24
2018-02-13T04:17:04.333Z,82.95
2018-02-13T04:17:30.437Z,83.05
2018-02-13T04:17:56.529Z,82.76
2018-02-13T04:18:22.625Z,82.67
2018-02-13T04:18:48.725Z,82.86
2018-02-13T04:19:14.837Z,82.57
2018-02-13T04:19:40.934Z,82.95
2018-02-13T04:20:07.038Z,82.39
2018-02-13T04:20:33.131Z,82.67
2018-02-13T04:20:59.253Z,82.86
2018-02-13T04:21:25.359Z,83.33
2018-02-13T04:21:51.477Z,83.33
2018-02-13T04:22:17.571Z,83.14
2018-02-13T04:22:43.674Z,83.14
2018-02-13T04:23:09.765Z,83.43
2018-02-13T04:23:35.873Z,82.57
2018-02-13T04:24:01.969Z,82.95
2018-02-13T04:24:28.086Z,82.95
2018-02-13T04:24:54.181Z,82.76
2018-02-13T04:25:20.277Z,82.76
2018-02-13T04:25:46.381Z,82.57
2018-02-13T04:26:12.480Z,83.14
2018-02-13T04:26:38.575Z,83.43
2018-02-13T04:27:04.681Z,82.76
2018-02-13T04:27:30.775Z,83.14
2018-02-13T04:27:56.871Z,83.05
2018-02-13T04:28:22.972Z,83.24
2018-02-13T04:28:49.086Z,83.14
2018-02-13T04:29:15.201Z,83.05
2018-02-13T04:29:41.304Z,83.14
2018-02-13T04:30:07.400Z,83.14
2018-02-13T04:30:33.521Z,83.05
2018-02-13T04:30:59.615Z,83.14
2018-02-13T04:31:25.715Z,82.95
2018-02-13T04:31:51.820Z,83.71
2018-02-13T04:32:17.919Z,83.52
2018-02-13T04:32:44.033Z,83.24
2018-02-13T04:33:10.130Z,83.62
2018-02-13T04:33:36.233Z,83.62
2018-02-13T04:34:02.346Z,83.71
2018-02-13T04:34:28.450Z,83.14
2018-02-13T04:34:54.549Z,83.05
2018-02-13T04:35:20.647Z,83.24
2018-02-13T04:35:46.747Z,83.14
2018-02-13T04:36:12.841Z,83.33
2018-02-13T04:36:38.946Z,83.62
2018-02-13T04:37:05.041Z,83.52
2018-02-13T04:37:31.138Z,83.58
2018-02-13T04:37:57.241Z,83.9
2018-02-13T04:38:23.336Z,84.09
2018-02-13T04:38:49.433Z,84.14
2018-02-13T04:39:15.544Z,84.14
2018-02-13T04:39:41.647Z,84.05
2018-02-13T04:40:07.752Z,83.95
2018-02-13T04:40:33.848Z,83.86
2018-02-13T04:40:59.946Z,84.14
2018-02-13T04:41:26.048Z,83.67
2018-02-13T04:41:52.148Z,83.81
2018-02-13T04:42:18.247Z,83.9
2018-02-13T04:42:44.337Z,84.05
2018-02-13T04:43:10.440Z,84.05
2018-02-13T04:43:36.541Z,83.86
2018-02-13T04:44:02.643Z,84.05
2018-02-13T04:44:28.744Z,83.95
2018-02-13T04:44:54.848Z,84.05
2018-02-13T04:45:20.947Z,83.86
2018-02-13T04:45:47.042Z,84.23
2018-02-13T04:46:13.161Z,84.23
2018-02-13T04:46:39.239Z,83.86
2018-02-13T04:47:05.353Z,84.14
2018-02-13T04:47:31.458Z,83.86
2018-02-13T04:47:57.554Z,84.19
2018-02-13T04:48:23.656Z,84.09
2018-02-13T04:48:49.756Z,83.86
2018-02-13T04:49:15.852Z,83.95
2018-02-13T04:49:41.955Z,83.95
2018-02-13T04:50:08.050Z,83.76
2018-02-13T04:50:34.148Z,83.67
2018-02-13T04:51:00.251Z,84
2018-02-13T04:51:26.345Z,84
2018-02-13T04:51:52.450Z,83.39
2018-02-13T04:52:18.551Z,83.39
2018-02-13T04:52:44.651Z,83.86
2018-02-13T04:53:10.751Z,83.76
2018-02-13T04:53:36.847Z,84.14
2018-02-13T04:54:02.969Z,84.14
2018-02-13T04:54:29.062Z,84
2018-02-13T04:54:55.155Z,84.19
2018-02-13T04:55:21.258Z,84.09
2018-02-13T04:55:47.357Z,84.09
2018-02-13T04:56:13.458Z,84
2018-02-13T04:56:39.549Z,84.09
2018-02-13T04:57:05.654Z,83.95
2018-02-13T04:57:31.755Z,83.86
2018-02-13T04:57:57.857Z,83.76
2018-02-13T04:58:23.952Z,84.23
2018-02-13T04:58:50.069Z,84.52
2018-02-13T04:59:16.167Z,83.67
2018-02-13T04:59:42.265Z,83.67
2018-02-13T05:00:08.367Z,84.23
2018-02-13T05:00:34.474Z,83.76
2018-02-13T05:01:00.560Z,84.42
2018-02-13T05:01:26.662Z,84.38
2018-02-13T05:01:52.762Z,84.19
2018-02-13T05:02:18.853Z,83.81
2018-02-13T05:02:44.951Z,83.86
2018-02-13T05:03:11.057Z,84.28
2018-02-13T05:03:37.147Z,83.9
2018-02-13T05:04:03.268Z,84
2018-02-13T05:04:29.368Z,83.95
2018-02-13T05:04:55.469Z,84.14
2018-02-13T05:05:21.570Z,83.95
2018-02-13T05:05:47.664Z,84.14
2018-02-13T05:06:13.763Z,83.95
2018-02-13T05:06:39.885Z,83.86
2018-02-13T05:07:05.989Z,83.58
2018-02-13T05:07:32.086Z,84.42
2018-02-13T05:07:58.192Z,83.58
2018-02-13T05:08:24.286Z,84.42
2018-02-13T05:08:50.384Z,84.42
2018-02-13T05:09:16.489Z,84.61
2018-02-13T05:09:42.589Z,84.42
2018-02-13T05:10:08.685Z,84.23
2018-02-13T05:10:34.781Z,84.71
2018-02-13T05:11:00.884Z,84.61
2018-02-13T05:11:26.985Z,84.52
2018-02-13T05:11:53.079Z,84.81
2018-02-13T05:12:19.182Z,84.81
2018-02-13T05:12:45.280Z,85.47
2018-02-13T05:13:11.384Z,85.75
2018-02-13T05:13:37.482Z,85.28
2018-02-13T05:14:03.576Z,85.85
2018-02-13T05:14:29.677Z,85.66
2018-02-13T05:14:55.798Z,85.94
2018-02-13T05:15:21.913Z,85.09
2018-02-13T05:15:48.012Z,85.57
2018-02-13T05:16:14.116Z,85.38
2018-02-13T05:16:40.211Z,85.09
2018-02-13T05:17:06.337Z,85.38
2018-02-13T05:17:32.458Z,85.57
2018-02-13T05:17:58.558Z,85.19
2018-02-13T05:18:24.674Z,85.38
2018-02-13T05:18:50.768Z,85.28
2018-02-13T05:19:16.867Z,85
2018-02-13T05:19:42.985Z,85.94
2018-02-13T05:20:09.073Z,85.85
2018-02-13T05:20:35.165Z,85.66
2018-02-13T05:21:01.264Z,86.41
2018-02-13T05:21:27.363Z,86.13
2018-02-13T05:21:53.461Z,86.13
2018-02-13T05:22:19.554Z,85.47
2018-02-13T05:22:45.656Z,85.85
2018-02-13T05:23:11.793Z,86.04
2018-02-13T05:23:37.915Z,85.75
2018-02-13T05:24:03.970Z,86.22
2018-02-13T05:24:30.065Z,86.13
2018-02-13T05:24:56.163Z,86.13
2018-02-13T05:25:22.265Z,86.22
2018-02-13T05:25:48.361Z,85.85
2018-02-13T05:26:14.462Z,85.85
2018-02-13T05:26:40.557Z,86.04
2018-02-13T05:27:06.656Z,85.94
2018-02-13T05:27:32.756Z,85.85
2018-02-13T05:27:58.858Z,85.66
2018-02-13T05:28:24.957Z,85.94
2018-02-13T05:28:51.061Z,85.75
2018-02-13T05:29:17.156Z,86.04
2018-02-13T05:29:43.301Z,86.22
2018-02-13T05:30:09.347Z,85.85
2018-02-13T05:30:35.450Z,85.94
2018-02-13T05:31:01.543Z,85.94
2018-02-13T05:31:27.639Z,85.94
2018-02-13T05:31:53.740Z,85.94
2018-02-13T05:32:19.837Z,86.13
2018-02-13T05:32:45.940Z,86.13
2018-02-13T05:33:12.042Z,85.66
2018-02-13T05:33:38.139Z,86.04
2018-02-13T05:34:04.257Z,85.85
2018-02-13T05:34:30.357Z,85.75
2018-02-13T05:34:56.452Z,85.94
2018-02-13T05:35:22.555Z,85.85
2018-02-13T05:35:48.658Z,85.75
2018-02-13T05:36:14.751Z,85.57
2018-02-13T05:36:40.850Z,85.57
2018-02-13T05:37:06.952Z,85.57
2018-02-13T05:37:33.054Z,85.85
2018-02-13T05:37:59.151Z,85.85